Shumans, Pennsylvania
Current Conditions -  °F | °C
As of 7:35 AM on Monday 26 Jan 2015 (Local Time) from KHZL Reporting Station
Overcast Overcast  
Wind Chill:   Ceiling: 1700
Heat Index: 19°   Visibility: 10mi
Dew Point: 14°   Wind: 12mph
Humidity: 80%   Direction: 90°E
Pressure: 29.83"   Gusts: 20mph
Location:  41.0301°N, 76.4558°W
Report Text: KHZL 261235Z AUTO 09010G17KT 070V130 10SM OVC017 M07/M10 A2983 RMK AO2
Loading
Personal Weather Stations






























Interactive Weather Map New forecast layout! Learn more

10-Day Weather Forecast

Advertisements
Track Severe Weather on mobile